Terminal Aerodrome Forecast
Issued by NWS

Home | Current Version | Previous Version | Text Only | Print | Product List | Glossary On
Versions: 1 2 3 4 5 6 7 8 9 10 11 12 13
000
FTPA31 PHFO 222020 AAA
TAFHJH
TAF AMD
PHJH 222020Z 2220/2318 04012G20KT P6SM FEW025 SCT045
     FM230500 06010KT P6SM SCT025 SCT045
      AMD NOT SKED 2304/2316=

USA.gov is the U.S. government's official web portal to all federal, state and local government web resources and services.